Tiempo atmosférico en la estación meteorológica de Bossòst, Lleida (725 m.)



Fecha
DESCASC
Temp. máxima en grados centígrados (hora)
DESCASC
Temp. mínima en grados centígrados (hora)
DESCASC
Temp. media en grados centígrados
DESCASC
Racha de viento máxima en m/sg (hora)
DESCASC
Velocidad máxima media en intervalos de 10 minutos(hora)
DESCASC
Precipitaciones diarias en mm
DESCASC
Precipitaciones de 00:00 a 06:00 en mm
DESCASC
Precipitaciones de 06:00 a 12:00 en mm
DESCASC
Precipitaciones de 12:00 a 18:00 en mm
DESCASC
Precipitaciones de 18:00 a 24:00 en mm
DESCASC
17-09-2020 29.2 (15:00) 12 (07:50) 20.6 10.56 (14:40) 6.94 (14:40) -- -- 0 0 0
16-09-2020 28.6 (14:50) 12.4 (07:20) 20.5 5.83 (15:30) 3.33 (02:20) -- -- -- -- --
15-09-2020 27.7 (17:00) 15.2 (23:59) 21.5 7.78 (07:20) 5 (20:20) -- -- -- -- --
14-09-2020 32.6 (15:10) 15.3 (00:00) 23.9 7.22 (05:40) 4.44 (08:30) -- -- -- -- --
13-09-2020 29.7 (15:00) 10.8 (00:00) 20.3 5.28 (16:20) 3.06 (21:30) -- -- -- -- --
12-09-2020 26.7 (17:20) 11.3 (00:00) 19 6.39 (15:40) 3.06 (02:30) -- -- -- -- --
11-09-2020 25.2 (15:20) 11.1 (00:00) 18.2 6.39 (16:00) 3.33 (07:20) -- -- -- -- --
10-09-2020 21.6 (17:20) 12.9 (00:00) 17.3 3.61 (16:40) 2.5 (16:40) -- -- -- -- --
09-09-2020 18.4 (16:10) 10.3 (00:00) 14.3 6.67 (03:50) 4.17 (03:50) -- -- -- -- --
08-09-2020 22.7 (16:50) 6 (00:00) 14.4 6.67 (16:30) 3.33 (05:00) -- -- -- -- --
07-09-2020 17.6 (17:30) 10.7 (06:40) 14.2 6.11 (17:40) 2.5 (17:40) -- -- -- -- --
06-09-2020 18.3 (00:00) 12.6 (00:00) 15.4 7.5 (14:30) 2.78 (14:00) -- -- -- -- --
05-09-2020 26.3 (14:50) 11.6 (00:00) 18.9 7.22 (16:10) 3.61 (16:10) -- -- -- -- --
04-09-2020 29.8 (16:10) 10.8 (00:00) 20.3 6.39 (15:20) 3.61 (02:30) -- -- -- -- --
03-09-2020 26.4 (16:20) 7.1 (00:00) 16.7 5.56 (15:30) 2.78 (01:20) -- -- -- -- --
02-09-2020 21.6 (16:50) 11.2 (00:00) 16.4 7.5 (15:20) 3.33 (15:20) -- -- -- -- --
01-09-2020 21.6 (15:30) 8.4 (00:00) 15 6.94 (14:50) 3.33 (16:00) -- -- -- -- --
31-08-2020 20.6 (16:00) 8 (00:00) 14.3 7.78 (16:00) 3.06 (16:10) -- -- -- -- --
30-08-2020 16.5 (15:00) 8.8 (00:00) 12.7 6.67 (13:20) 3.06 (13:20) -- -- -- -- --
29-08-2020 15.7 (14:30) 10.6 (00:00) 13.2 5.56 (00:30) 3.33 (17:40) -- -- -- -- --
28-08-2020 19.5 (00:00) 12.3 (00:00) 15.9 6.39 (12:30) 3.06 (01:30) -- -- -- -- --
27-08-2020 30.4 (15:30) 14.2 (00:00) 22.3 9.17 (16:40) 4.17 (16:40) -- -- -- -- --
26-08-2020 27.3 (17:00) 12.2 (00:00) 19.7 8.33 (16:00) 3.61 (15:40) -- -- -- -- --
25-08-2020 31.9 (15:20) 9.2 (00:00) 20.5 7.78 (17:40) 3.89 (17:00) -- -- -- -- --
24-08-2020 25 (16:40) 14.1 (00:00) 19.6 6.94 (17:00) 3.33 (14:20) -- -- -- -- --
23-08-2020 23.7 (15:50) 15 (00:00) 19.4 7.78 (13:40) 3.61 (13:00) -- -- -- -- --
22-08-2020 21.7 (13:50) 15.9 (00:00) 18.8 7.22 (14:20) 2.5 (14:10) -- -- -- -- --
21-08-2020 30.6 (14:50) 16.4 (00:00) 23.5 13.33 (00:40) 7.22 (00:30) -- -- -- -- --

Gráficas

Temp. máximas Temp. mínimas Temp. medias Precipitaciones Rachas de viento máximas Velocidades máximas media en intervalos de 10 minutos

Datos horarios

Fecha y hora oficial Temperatura (ºC) Velocidad del viento (km/h) Dirección del viento Racha (km/h) Dirección de racha Precipitación (mm) Presión (hPa) Tendencia (hPa) Humedad (%)
2020-09-19 23:00:00 14.6 2 Sudoeste 6 Sur 0 -- -- 90
2020-09-19 22:00:00 15.4 0 Calma 20 Sur 0 -- -- 86
2020-09-19 21:00:00 16.2 8 Sur 33 Sudoeste 0 -- -- 79
2020-09-19 20:00:00 16.7 16 Sudoeste 27 Sudoeste 0 -- -- 81
2020-09-19 19:00:00 18.4 21 Sudoeste 36 Sudoeste 0 -- -- 68
2020-09-19 18:00:00 19.3 9 Sudoeste 17 Sur 0 -- -- 72
2020-09-19 17:00:00 19.1 12 Sudoeste 26 Sudoeste 0 -- -- 77
2020-09-19 16:00:00 19.3 14 Sudoeste 22 Sudoeste 0 -- -- 80
2020-09-19 15:00:00 19.7 6 Sur 12 Sur 0 -- -- 81
2020-09-19 14:00:00 19 3 Nordeste 7 Nordeste 0 -- -- 79
2020-09-19 13:00:00 17.4 4 Sur 16 Sudoeste 0 -- -- 85
2020-09-19 12:00:00 17.1 5 Sudoeste 10 Sur 0 -- -- 89
2020-09-19 11:00:00 16.5 3 Sudeste 19 Sudoeste 0.6 -- -- 91
2020-09-19 10:00:00 14.4 7 Sudoeste 18 Sudoeste 2.6 -- -- 96
2020-09-19 09:00:00 14.1 11 Sudoeste 23 Sudoeste 4 -- -- 96
2020-09-19 08:00:00 14.2 6 Sur 19 Noroeste 0 -- -- 97
2020-09-19 07:00:00 14.3 0 Calma 17 Sudoeste 0 -- -- 97
2020-09-19 06:00:00 14.4 2 Nordeste 7 Sudoeste 0 -- -- 97
2020-09-19 05:00:00 14.7 3 Nordeste 9 Sur 0 -- -- 97
2020-09-19 04:00:00 15 5 Sudoeste 13 Sudoeste 0 -- -- 97
2020-09-19 03:00:00 15.2 3 Nordeste 22 Sudoeste 1 -- -- 96
2020-09-19 02:00:00 15.2 6 Sudoeste 19 Sudoeste 0.6 -- -- 97
2020-09-19 01:00:00 15.3 2 Sudoeste 7 Sudoeste 0 -- -- 97
2020-09-19 00:00:00 15.7 0 Calma 6 Nordeste 0.2 -- -- 97
2020-09-18 23:00:00 15.9 3 Nordeste 6 Nordeste 0 -- -- 96
2020-09-18 22:00:00 16.3 4 Sur 9 Nordeste 0.2 -- -- 96
2020-09-18 21:00:00 16.9 2 Nordeste 8 Sudeste 0.8 -- -- 94
2020-09-18 20:00:00 18.9 11 Sur 18 Sur 0.2 -- -- 77
2020-09-18 19:00:00 22.1 5 Sudoeste 23 Sudoeste 0 -- -- 62
2020-09-18 18:00:00 23.3 13 Sudoeste 28 Oeste 0 -- -- 51
2020-09-18 17:00:00 23.8 15 Sudoeste 24 Oeste 0 -- -- 50
2020-09-18 16:00:00 23.3 14 Oeste 29 Oeste 0 -- -- 55
2020-09-18 15:00:00 24.4 13 Oeste 39 Sudoeste 0 -- -- 50
2020-09-18 14:00:00 25.2 23 Sudoeste 49 Sudoeste 0 -- -- 46
2020-09-18 13:00:00 24.1 22 Sudoeste 46 Sudoeste 0 -- -- 48
2020-09-18 12:00:00 23.3 6 Sudoeste 25 Sudoeste 0 -- -- 60
2020-09-18 11:00:00 23.3 14 Sudoeste 36 Sudoeste 0 -- -- 49
2020-09-18 10:00:00 23 14 Sudoeste 37 Oeste 0 -- -- 48
2020-09-18 09:00:00 20.4 8 Sudoeste 26 Sudoeste 0 -- -- 53
2020-09-18 08:00:00 18.3 0 Calma 10 Este 0 -- -- 64
2020-09-18 07:00:00 18.7 4 Sur 21 Sudoeste 0 -- -- 61
2020-09-18 06:00:00 20.7 12 Sudoeste 31 Sudoeste 0 -- -- 49
2020-09-18 05:00:00 20.5 6 Sur 41 Sudoeste 0 -- -- 49
2020-09-18 04:00:00 22.5 20 Sudoeste 37 Sudoeste 0 -- -- 41
2020-09-18 03:00:00 20.1 7 Sudoeste 23 Oeste 0 -- -- 49
2020-09-18 02:00:00 17 4 Sur 8 Oeste 0 -- -- 69
2020-09-18 01:00:00 17.5 0 Calma 17 Sudoeste 0 -- -- 66
2020-09-18 00:00:00 19.5 13 Sudoeste 23 Sur 0 -- -- 54
2020-09-17 23:00:00 20.4 13 Sudoeste 25 Sur 0 -- -- 52
2020-09-17 22:00:00 21 12 Sudoeste 24 Sur 0 -- -- 52
2020-09-17 21:00:00 20.1 11 Sudoeste 20 Sur 0 -- -- 57
2020-09-17 20:00:00 20.9 5 Sur 15 Sudoeste 0 -- -- 66
2020-09-17 19:00:00 22.5 6 Sudoeste 11 Sudoeste 0 -- -- 57
2020-09-17 18:00:00 24.5 2 Este 14 Noroeste 0 -- -- 53
2020-09-17 17:00:00 26.7 5 Sudoeste 20 Sudoeste 0 -- -- 43
2020-09-17 16:00:00 28.7 13 Sudoeste 29 Oeste 0 -- -- 36
2020-09-17 15:00:00 29.2 14 Sudoeste 38 Sudoeste 0 -- -- 36
2020-09-17 14:00:00 27.6 3 Sudeste 10 Nordeste 0 -- -- 52
2020-09-17 13:00:00 27.4 3 Nordeste 5 Este 0 -- -- 47
2020-09-17 12:00:00 23.4 2 Este 6 Nordeste 0 -- -- 63
2020-09-17 11:00:00 19.2 0 Calma 5 Sur 0 -- -- 73
2020-09-17 10:00:00 15.1 0 Calma 13 Sudoeste 0 -- -- 88
2020-09-17 09:00:00 13.3 0 Calma 14 Sur 0 -- -- 91
2020-09-17 08:00:00 12.2 5 Sur 14 Sur 0 -- -- 94
2020-09-17 07:00:00 12.3 4 Sur 8 Sudoeste 0 -- -- 93
2020-09-17 06:00:00 13.3 2 Noroeste 14 Sudoeste 0 -- -- 89
2020-09-17 05:00:00 13.6 10 Sur 14 Sudoeste 0 -- -- 89
2020-09-17 04:00:00 13.6 8 Sur 13 Sudoeste 0 -- -- 91
2020-09-17 03:00:00 14.9 4 Sur 13 Sudoeste 0 -- -- 86
2020-09-17 02:00:00 15.2 6 Sur 14 Sudoeste 0 -- -- 86
2020-09-17 01:00:00 15.7 7 Sur 13 Sudoeste 0 -- -- 86
2020-09-17 00:00:00 16.2 4 Sudoeste 10 Sudoeste 0 -- -- 85
2020-09-16 23:00:00 17.4 2 Sur 6 Sudoeste 0 -- -- 80
2020-09-16 22:00:00 18.2 3 Sudoeste 9 Sudoeste 0 -- -- 79
2020-09-16 21:00:00 19.5 0 Calma 4 Sudoeste 0 -- -- 75
2020-09-16 20:00:00 21.4 0 Calma 5 Sur 0 -- -- 69
2020-09-16 19:00:00 24.3 2 Sudoeste 11 Nordeste 0 -- -- 62
2020-09-16 18:00:00 27.7 5 Norte 17 Norte 0 -- -- 45
2020-09-16 17:00:00 28.3 8 Norte 19 Norte 0 -- -- 41
2020-09-16 16:00:00 28.6 9 Norte 21 Norte 0 -- -- 40
2020-09-16 15:00:00 28.6 8 Norte 19 Nordeste 0 -- -- 38
2020-09-16 14:00:00 27.7 8 Norte 17 Norte 0 -- -- 43
2020-09-16 13:00:00 26.6 3 Nordeste 6 Este 0 -- -- 48
2020-09-16 12:00:00 23 3 Nordeste 8 Norte 0 -- -- 60
2020-09-16 11:00:00 18.5 0 Calma 4 Sur 0 -- -- 77
2020-09-16 10:00:00 13.7 0 Calma 13 Sudoeste 0 -- -- 91
2020-09-16 09:00:00 13 5 Sur 14 Sudoeste 0 -- -- 90
2020-09-16 08:00:00 12.6 7 Sur 14 Sudoeste 0 -- -- 91
2020-09-16 07:00:00 12.6 6 Sur 14 Sur 0 -- -- 92
2020-09-16 06:00:00 12.6 7 Sur 14 Sudoeste 0 -- -- 93
2020-09-16 05:00:00 12.9 8 Sur 14 Sur 0 -- -- 93
2020-09-16 04:00:00 13.3 5 Sur 14 Oeste 0 -- -- 92
2020-09-16 03:00:00 13.6 6 Sudoeste 17 Sudoeste 0 -- -- 92
2020-09-16 02:00:00 13.9 7 Sudoeste 15 Sudoeste 0 -- -- 92
2020-09-16 01:00:00 14.4 4 Sur 15 Oeste 0 -- -- 92
2020-09-16 00:00:00 15.2 10 Sudoeste 18 Sudoeste 0 -- -- 90
2020-09-15 23:00:00 15.9 9 Sudoeste 17 Sudoeste 0 -- -- 90
2020-09-15 22:00:00 17.1 9 Sudoeste 16 Oeste 0 -- -- 87
2020-09-15 21:00:00 18.5 13 Sudoeste 26 Sudoeste 0 -- -- 81
2020-09-15 20:00:00 19.6 9 Sudoeste 26 Sur 0 -- -- 79
2020-09-15 19:00:00 22.3 17 Sudoeste 27 Sudoeste 0 -- -- 68
2020-09-15 18:00:00 24.4 12 Sudoeste 20 Oeste 0 -- -- 54
2020-09-15 17:00:00 27.7 4 Oeste 15 Norte 0 -- -- 47
2020-09-15 16:00:00 25.8 6 Norte 12 Norte 0 -- -- 49
2020-09-15 15:00:00 23.5 4 Norte 12 Norte 0 -- -- 53
2020-09-15 14:00:00 21.7 3 Sudeste 6 Nordeste 0 -- -- 65
2020-09-15 13:00:00 21.4 0 Calma 5 Sudeste 0 -- -- 62
2020-09-15 12:00:00 21.4 0 Calma 7 Este 0 -- -- 59
2020-09-15 11:00:00 20.6 3 Nordeste 7 Nordeste 0 -- -- 63
2020-09-15 10:00:00 18.1 0 Calma 9 Sur 0 -- -- 69
2020-09-15 09:00:00 17.5 5 Sudoeste 18 Sudoeste 0 -- -- 64
2020-09-15 08:00:00 17.4 6 Sudoeste 28 Sudeste 0 -- -- 62
2020-09-15 07:00:00 17.9 9 Sur 24 Sudoeste 0 -- -- 58
2020-09-15 06:00:00 17.4 7 Sudoeste 21 Sudoeste 0 -- -- 61
2020-09-15 05:00:00 17.7 12 Sudoeste 26 Sudoeste 0 -- -- 59
2020-09-15 04:00:00 18.1 11 Sudoeste 22 Oeste 0 -- -- 57
2020-09-15 03:00:00 18.2 12 Sudoeste 26 Sudoeste 0 -- -- 56
2020-09-15 02:00:00 18.1 12 Sudoeste 26 Sudoeste 0 -- -- 57
2020-09-15 01:00:00 18.5 15 Sudoeste 24 Sudoeste 0 -- -- 57
2020-09-15 00:00:00 17.6 15 Sudoeste 22 Sudoeste 0 -- -- 61
2020-09-14 23:00:00 15.9 8 Sudoeste 15 Sudoeste 0 -- -- 72
2020-09-14 22:00:00 16.9 4 Sur 11 Sudoeste 0 -- -- 69
2020-09-14 21:00:00 18.3 4 Sudoeste 17 Sudoeste 0 -- -- 65
2020-09-14 20:00:00 20.3 9 Sur 18 Sudoeste 0 -- -- 57
2020-09-14 19:00:00 22.8 11 Sur 18 Sudoeste 0 -- -- 46
2020-09-14 18:00:00 28.5 9 Sur 19 Sudoeste 0 -- -- 34
2020-09-14 17:00:00 32.1 9 Sudoeste 25 Sudoeste 0 -- -- 29
2020-09-14 16:00:00 32.3 8 Oeste 25 Sudoeste 0 -- -- 28
2020-09-14 15:00:00 32.5 12 Oeste 23 Sudoeste 0 -- -- 30
2020-09-14 14:00:00 31.5 9 Sudoeste 21 Sudoeste 0 -- -- 27
2020-09-14 13:00:00 30 4 Sudoeste 19 Sudoeste 0 -- -- 31
2020-09-14 12:00:00 26.3 2 Este 13 Sur 0 -- -- 50
2020-09-14 11:00:00 23.9 7 Sudoeste 18 Sudoeste 0 -- -- 52
2020-09-14 10:00:00 18 11 Sudoeste 20 Sudoeste 0 -- -- 61
2020-09-14 09:00:00 16.8 14 Sudoeste 21 Sudoeste 0 -- -- 63
2020-09-14 08:00:00 17.3 13 Sudoeste 23 Sur 0 -- -- 58
2020-09-14 07:00:00 17.4 12 Sudoeste 24 Sudoeste 0 -- -- 57
2020-09-14 06:00:00 18.1 14 Sudoeste 26 Sudoeste 0 -- -- 55
2020-09-14 05:00:00 17.9 13 Sudoeste 23 Sudoeste 0 -- -- 56
2020-09-14 04:00:00 16.9 9 Sudoeste 18 Sudoeste 0 -- -- 61
2020-09-14 03:00:00 16.4 10 Sudoeste 23 Sudoeste 0 -- -- 64
2020-09-14 02:00:00 16.9 14 Sudoeste 23 Sudoeste 0 -- -- 64
2020-09-14 01:00:00 15.6 10 Sudoeste 18 Sudoeste 0 -- -- 74
2020-09-14 00:00:00 15.5 10 Sudoeste 17 Sudoeste 0 -- -- 78
2020-09-13 23:00:00 15.8 7 Sudoeste 13 Sur 0 -- -- 79
2020-09-13 22:00:00 17.1 8 Sudoeste 19 Sudoeste 0 -- -- 77
2020-09-13 21:00:00 18.5 10 Sudoeste 18 Sudoeste 0 -- -- 75
2020-09-13 20:00:00 20 6 Sudoeste 14 Sudoeste 0 -- -- 70
2020-09-13 19:00:00 23 0 Calma 4 Sur 0 -- -- 66
2020-09-13 18:00:00 29 3 Oeste 18 Norte 0 -- -- 47
2020-09-13 17:00:00 29.5 5 Norte 19 Nordeste 0 -- -- 38
2020-09-13 16:00:00 29.6 6 Norte 18 Norte 0 -- -- 37
2020-09-13 15:00:00 29.7 6 Norte 17 Norte 0 -- -- 36
2020-09-13 14:00:00 28.8 4 Norte 10 Nordeste 0 -- -- 38
2020-09-13 13:00:00 26.7 2 Sudeste 6 Nordeste 0 -- -- 46
2020-09-13 12:00:00 22.5 3 Este 5 Nordeste 0 -- -- 63
2020-09-13 11:00:00 17.8 0 Calma 5 Este 0 -- -- 80
2020-09-13 10:00:00 11.7 2 Sur 8 Sudoeste 0 -- -- 95
2020-09-13 09:00:00 11.6 3 Sudoeste 13 Sudoeste 0 -- -- 94
2020-09-13 08:00:00 11.3 8 Sudoeste 15 Sudoeste 0 -- -- 96
2020-09-13 07:00:00 11.4 2 Sudeste 9 Sur 0 -- -- 96
2020-09-13 06:00:00 11.8 4 Sur 10 Sudoeste 0 -- -- 95
2020-09-13 05:00:00 12.7 7 Sur 18 Sudoeste 0 -- -- 93
2020-09-13 04:00:00 12.9 6 Sudoeste 15 Sudoeste 0 -- -- 94
2020-09-13 03:00:00 12.9 5 Sudoeste 12 Sudoeste 0 -- -- 94
2020-09-13 02:00:00 13.7 6 Sudoeste 14 Sudoeste 0 -- -- 92
2020-09-13 01:00:00 14.4 9 Sudoeste 14 Sudoeste 0 -- -- 91
2020-09-13 00:00:00 15 6 Sudoeste 12 Sudoeste 0 -- -- 91
2020-09-12 23:00:00 16 0 Calma 7 Sudoeste 0 -- -- 88
2020-09-12 22:00:00 16.9 3 Sudoeste 8 Sur 0 -- -- 86
2020-09-12 21:00:00 17.8 0 Calma 5 Sur 0 -- -- 81
2020-09-12 20:00:00 21 0 Calma 6 Sur 0 -- -- 71
2020-09-12 19:00:00 23.7 0 Calma 14 Norte 0 -- -- 62
2020-09-12 18:00:00 25.9 7 Norte 17 Nordeste 0 -- -- 51
2020-09-12 17:00:00 26.5 5 Norte 21 Norte 0 -- -- 48
2020-09-12 16:00:00 26 9 Norte 23 Norte 0 -- -- 49
2020-09-12 15:00:00 26.3 10 Norte 21 Norte 0 -- -- 49
2020-09-12 14:00:00 25.7 9 Norte 18 Norte 0 -- -- 50
2020-09-12 13:00:00 24.9 3 Nordeste 8 Norte 0 -- -- 53
2020-09-12 12:00:00 21.6 2 Este 4 Este 0 -- -- 70
2020-09-12 11:00:00 17 0 Calma 3 Sudoeste 0 -- -- 84
2020-09-12 10:00:00 11.6 0 Calma 6 Sudoeste 0 -- -- 97
2020-09-12 09:00:00 11.6 4 Sur 13 Sudoeste 0 -- -- 96
2020-09-12 08:00:00 11.3 5 Sur 13 Sudoeste 0 -- -- 96
2020-09-12 07:00:00 11.3 6 Sudoeste 10 Sudoeste 0 -- -- 96
2020-09-12 06:00:00 11.8 4 Sudoeste 10 Sur 0 -- -- 95
2020-09-12 05:00:00 12.3 5 Sudoeste 11 Sudoeste 0 -- -- 95
2020-09-12 04:00:00 12.7 5 Sur 13 Sudoeste 0 -- -- 94
2020-09-12 03:00:00 13.3 6 Sur 15 Sudoeste 0 -- -- 93
2020-09-12 02:00:00 13.9 9 Sudoeste 18 Sudoeste 0 -- -- 93
2020-09-12 01:00:00 14.4 6 Sudoeste 12 Sudoeste 0 -- -- 93
2020-09-12 00:00:00 15.3 3 Sudoeste 8 Sudoeste 0 -- -- 91
2020-09-11 23:00:00 17 3 Sudoeste 10 Sudoeste 0 -- -- 87
2020-09-11 22:00:00 17.8 4 Sudoeste 8 Sudoeste 0 -- -- 86
2020-09-11 21:00:00 18.8 0 Calma 4 Oeste 0 -- -- 83
2020-09-11 20:00:00 19.9 0 Calma 5 Norte 0 -- -- 80
2020-09-11 19:00:00 21.8 0 Calma 8 Este 0 -- -- 72
2020-09-11 18:00:00 24.4 4 Norte 13 Noroeste 0 -- -- 56
2020-09-11 17:00:00 24 3 Norte 22 Norte 0 -- -- 55
2020-09-11 16:00:00 24.3 9 Norte 23 Norte 0 -- -- 52
2020-09-11 15:00:00 24.9 8 Norte 19 Norte 0.2 -- -- 50
2020-09-11 14:00:00 23.6 9 Norte 18 Norte 0.2 -- -- 56
2020-09-11 13:00:00 20.7 2 Norte 5 Norte 0.2 -- -- 65
2020-09-11 12:00:00 18.9 0 Calma 5 Nordeste 0 -- -- 74
2020-09-11 11:00:00 15.5 0 Calma 5 Este 0 -- -- 89
2020-09-11 10:00:00 12.2 3 Nordeste 6 Sudoeste 0 -- -- 96
2020-09-11 09:00:00 11.5 4 Sudoeste 14 Sudoeste 0 -- -- 95
2020-09-11 08:00:00 11.4 8 Sudoeste 19 Sudoeste 0 -- -- 95
2020-09-11 07:00:00 11.3 9 Sudoeste 19 Sudoeste 0 -- -- 96
2020-09-11 06:00:00 11.3 6 Sur 12 Sudoeste 0.2 -- -- 96
2020-09-11 05:00:00 11.8 3 Sudoeste 11 Sudoeste 0 -- -- 96
2020-09-11 04:00:00 12.5 2 Sur 10 Sudoeste 0 -- -- 95
2020-09-11 03:00:00 12.9 4 Sudoeste 9 Sur 0 -- -- 94
2020-09-11 02:00:00 13.3 6 Sur 12 Sudoeste 0 -- -- 95
2020-09-11 01:00:00 13.4 0 Calma 11 Sudoeste 0 -- -- 93
2020-09-11 00:00:00 14 3 Sur 9 Sudoeste 0 -- -- 91
2020-09-10 23:00:00 15 3 Sudoeste 9 Sudoeste 0 -- -- 90
2020-09-10 22:00:00 15 5 Sudoeste 9 Sudoeste 0 -- -- 90
2020-09-10 21:00:00 15.3 4 Sudoeste 9 Sudoeste 0 -- -- 90
2020-09-10 20:00:00 16.8 3 Sur 5 Sudoeste 0 -- -- 84
2020-09-10 19:00:00 19 3 Sudoeste 9 Sur 0 -- -- 79
2020-09-10 18:00:00 21 0 Calma 11 Norte 0 -- -- 73
2020-09-10 17:00:00 21.2 3 Sudoeste 13 Sudoeste 0 -- -- 73
2020-09-10 16:00:00 19.8 8 Sudoeste 12 Sudoeste 0 -- -- 83
2020-09-10 15:00:00 19.7 0 Calma 10 Sudoeste 0 -- -- 83
2020-09-10 14:00:00 19.7 8 Sudoeste 12 Sudoeste 0 -- -- 80
2020-09-10 13:00:00 18.3 3 Sudoeste 6 Sudoeste 0 -- -- 82
2020-09-10 12:00:00 16.3 0 Calma 6 Oeste 0 -- -- 91
2020-09-10 11:00:00 16.2 2 Oeste 7 Oeste 0 -- -- 92
2020-09-10 10:00:00 14.9 3 Sudoeste 6 Sudoeste 0 -- -- 97
2020-09-10 09:00:00 14 2 Sur 6 Oeste 0 -- -- 99
2020-09-10 08:00:00 13.2 3 Sudoeste 5 Sudoeste 0 -- -- 99
2020-09-10 07:00:00 13.5 0 Calma 6 Sur 0.2 -- -- 99
2020-09-10 06:00:00 13.5 3 Sudoeste 8 Sudoeste 0.4 -- -- 98
2020-09-10 05:00:00 13.3 0 Calma 6 Sudoeste 0.4 -- -- 98
2020-09-10 04:00:00 13.3 5 Sudoeste 7 Sudoeste 0 -- -- 98
2020-09-10 03:00:00 13.1 3 Este 7 Nordeste 0 -- -- 98
2020-09-10 02:00:00 13 0 Calma 7 Sudoeste 0 -- -- 97
2020-09-10 01:00:00 13.5 0 Calma 8 Sudoeste 0 -- -- 97
2020-09-10 00:00:00 13.7 0 Calma 8 Oeste 0 -- -- 97
2020-09-09 23:00:00 13.8 0 Calma 7 Sudoeste 0 -- -- 96
2020-09-09 22:00:00 14.6 0 Calma 6 Sudoeste 0 -- -- 96
2020-09-09 21:00:00 14.8 0 Calma 4 Sur 0 -- -- 94
2020-09-09 20:00:00 15.8 0 Calma 6 Sudoeste 0 -- -- 92
2020-09-09 19:00:00 17.3 0 Calma 4 Nordeste 0 -- -- 88
2020-09-09 18:00:00 17.8 0 Calma 4 Nordeste 0 -- -- 89
2020-09-09 17:00:00 18.2 2 Nordeste 7 Norte 0 -- -- 84
2020-09-09 16:00:00 18.2 3 Nordeste 6 Nordeste 0 -- -- 80
2020-09-09 15:00:00 16.3 3 Nordeste 6 Norte 0 -- -- 90
2020-09-09 14:00:00 15.7 0 Calma 8 Nordeste 0.4 -- -- 90
2020-09-09 13:00:00 16 3 Norte 8 Norte 0 -- -- 89
2020-09-09 12:00:00 15.6 0 Calma 6 Este 0 -- -- 90
2020-09-09 11:00:00 14.8 0 Calma 5 Sudoeste 0 -- -- 90
2020-09-09 10:00:00 14.1 3 Nordeste 6 Nordeste 0 -- -- 93
2020-09-09 09:00:00 12.8 3 Nordeste 10 Sudoeste 0 -- -- 96
2020-09-09 08:00:00 12.4 3 Sur 16 Oeste 0 -- -- 94
2020-09-09 07:00:00 12.2 3 Sur 5 Sudeste 0 -- -- 93
2020-09-09 06:00:00 12 0 Calma 7 Sudoeste 0 -- -- 91
2020-09-09 05:00:00 12.4 0 Calma 22 Oeste 0 -- -- 86
2020-09-09 04:00:00 11.8 12 Sudoeste 24 Sudoeste 0 -- -- 88
2020-09-09 03:00:00 10.6 3 Sur 18 Sudoeste 0 -- -- 92
2020-09-09 02:00:00 11.2 6 Sur 13 Sudoeste 0 -- -- 91
2020-09-09 01:00:00 11.9 0 Calma 8 Nordeste 0 -- -- 90
2020-09-09 00:00:00 11.8 2 Sur 12 Sudoeste 0 -- -- 90
2020-09-08 23:00:00 13 3 Sur 15 Sudoeste 0 -- -- 86
2020-09-08 22:00:00 13.5 3 Sur 11 Sudoeste 0 -- -- 86
2020-09-08 21:00:00 14.2 2 Sur 5 Sur 0 -- -- 82
2020-09-08 20:00:00 17.2 0 Calma 4 Sudoeste 0 -- -- 74
2020-09-08 19:00:00 20.3 2 Oeste 10 Nordeste 0 -- -- 67
2020-09-08 18:00:00 21.6 2 Norte 24 Norte 0.2 -- -- 50
2020-09-08 17:00:00 22.6 12 Norte 24 Norte 0 -- -- 47
2020-09-08 16:00:00 22.5 12 Norte 24 Norte 0 -- -- 47
2020-09-08 15:00:00 22.4 9 Norte 19 Norte 0 -- -- 46
2020-09-08 14:00:00 21.1 9 Norte 19 Norte 0 -- -- 48
2020-09-08 13:00:00 19.4 6 Norte 14 Norte 0 -- -- 49
2020-09-08 12:00:00 17.3 3 Nordeste 7 Este 0 -- -- 58
2020-09-08 11:00:00 13.2 2 Sudeste 4 Sur 0.2 -- -- 77
2020-09-08 10:00:00 7.1 0 Calma 5 Sur 0 -- -- 95
2020-09-08 09:00:00 6.5 2 Sudoeste 13 Sudoeste 0 -- -- 92
2020-09-08 08:00:00 6.1 7 Sudoeste 13 Sudoeste 0 -- -- 94
2020-09-08 07:00:00 6.3 2 Sudeste 15 Sudoeste 0 -- -- 94
2020-09-08 06:00:00 6.8 6 Sudoeste 15 Sudoeste 0 -- -- 92
2020-09-08 05:00:00 7.3 12 Sudoeste 15 Sudoeste 0 -- -- 93
2020-09-08 04:00:00 7.9 7 Sur 13 Sudoeste 0 -- -- 91
2020-09-08 03:00:00 8.5 6 Sudoeste 11 Sudoeste 0 -- -- 92
2020-09-08 02:00:00 8.7 3 Sur 18 Sudoeste 0 -- -- 94
2020-09-08 01:00:00 9.1 3 Sur 5 Sur 0 -- -- 90
2020-09-08 00:00:00 10.8 0 Calma 3 Sudoeste 0 -- -- 87
2020-09-07 23:00:00 11.4 0 Calma 4 Oeste 0 -- -- 87
2020-09-07 22:00:00 11.8 0 Calma 6 Este 0 -- -- 84
2020-09-07 21:00:00 12.8 0 Calma 6 Nordeste 0 -- -- 79
2020-09-07 20:00:00 14.1 3 Sudoeste 10 Norte 0 -- -- 74
2020-09-07 19:00:00 15.6 3 Nordeste 17 Norte 0 -- -- 62
2020-09-07 18:00:00 16.7 6 Norte 22 Norte 0 -- -- 52
2020-09-07 17:00:00 16.8 2 Norte 11 Norte 0 -- -- 53
2020-09-07 16:00:00 15.9 8 Norte 21 Norte 0 -- -- 58
2020-09-07 15:00:00 16 2 Norte 14 Norte 0 -- -- 57
2020-09-07 14:00:00 15.4 7 Norte 21 Norte 0 -- -- 60
2020-09-07 13:00:00 14.1 3 Sudoeste 12 Norte 0 -- -- 68
2020-09-07 12:00:00 13.7 4 Norte 10 Norte 0 -- -- 71
2020-09-07 11:00:00 12.8 0 Calma 6 Norte 0 -- -- 80
2020-09-07 10:00:00 11.8 0 Calma 8 Norte 0 -- -- 88
2020-09-07 09:00:00 11.1 2 Nordeste 4 Norte 0 -- -- 94
2020-09-07 08:00:00 10.8 3 Nordeste 5 Nordeste 0 -- -- 96
2020-09-07 07:00:00 10.7 0 Calma 4 Sudoeste 0 -- -- 97
2020-09-07 06:00:00 10.9 0 Calma 6 Sudeste 0 -- -- 95
2020-09-07 05:00:00 11 3 Sur 9 Este 0 -- -- 94
2020-09-07 04:00:00 11.4 3 Nordeste 12 Norte 0 -- -- 91
2020-09-07 03:00:00 11.7 3 Norte 10 Noroeste 0 -- -- 91
2020-09-07 02:00:00 12.2 0 Calma 4 Norte 0 -- -- 96
2020-09-07 01:00:00 12.3 0 Calma 6 Norte 0 -- -- 95
2020-09-07 00:00:00 12.6 3 Norte 6 Este 0 -- -- 95
2020-09-06 23:00:00 13.3 0 Calma 6 Sudoeste 0 -- -- 89
2020-09-06 22:00:00 13.4 2 Sudoeste 4 Sur 0 -- -- 89
2020-09-06 21:00:00 13.7 0 Calma 7 Sur 0 -- -- 87
2020-09-06 20:00:00 14.7 2 Norte 12 Noroeste 0 -- -- 79
2020-09-06 19:00:00 15.2 3 Norte 17 Nordeste 0 -- -- 80
2020-09-06 18:00:00 16.1 3 Norte 15 Nordeste 0 -- -- 75
2020-09-06 17:00:00 16.6 3 Norte 15 Norte 0 -- -- 75
2020-09-06 16:00:00 16.4 6 Norte 18 Norte 0 -- -- 74
2020-09-06 15:00:00 16.3 8 Norte 27 Norte 0 -- -- 75
2020-09-06 14:00:00 17 10 Norte 22 Norte 0 -- -- 71
2020-09-06 13:00:00 16.2 8 Norte 21 Nordeste 0.2 -- -- 76
2020-09-06 12:00:00 15.9 8 Norte 18 Norte 0 -- -- 79
2020-09-06 11:00:00 15.4 5 Nordeste 12 Norte 0 -- -- 83
2020-09-06 10:00:00 14.5 4 Nordeste 12 Nordeste 0.2 -- -- 90
2020-09-06 09:00:00 14 3 Nordeste 7 Nordeste 0 -- -- 94
2020-09-06 08:00:00 13.8 0 Calma 8 Nordeste 0 -- -- 97
2020-09-06 07:00:00 13.9 2 Nordeste 9 Nordeste 0 -- -- 96
2020-09-06 06:00:00 14.4 0 Calma 6 Nordeste 0 -- -- 95
2020-09-06 05:00:00 14.7 0 Calma 8 Nordeste 0 -- -- 93
2020-09-06 04:00:00 15.3 2 Nordeste 6 Norte 0 -- -- 93
2020-09-06 03:00:00 15.5 3 Nordeste 8 Nordeste 0 -- -- 92
2020-09-06 02:00:00 15.7 5 Nordeste 12 Nordeste 0 -- -- 94
2020-09-06 01:00:00 16.8 4 Nordeste 15 Nordeste 0 -- -- 90
2020-09-06 00:00:00 18.3 5 Nordeste 14 Nordeste 0 -- -- 80
2020-09-05 23:00:00 18.9 2 Sudeste 8 Nordeste 0 -- -- 81
2020-09-05 22:00:00 19.3 0 Calma 3 Sudoeste 0 -- -- 79
2020-09-05 21:00:00 20 0 Calma 8 Nordeste 0 -- -- 75
2020-09-05 20:00:00 20.9 3 Nordeste 15 Norte 0 -- -- 69
2020-09-05 19:00:00 21.9 6 Norte 17 Nordeste 0 -- -- 65
2020-09-05 18:00:00 22.8 5 Norte 23 Norte 0 -- -- 65
2020-09-05 17:00:00 23.9 12 Norte 26 Norte 0 -- -- 60
2020-09-05 16:00:00 25.7 12 Norte 25 Norte 0 -- -- 53
2020-09-05 15:00:00 26.2 10 Norte 24 Norte 0 -- -- 48
2020-09-05 14:00:00 25.8 8 Norte 20 Norte 0 -- -- 47
2020-09-05 13:00:00 25.2 5 Norte 15 Norte 0 -- -- 46
2020-09-05 12:00:00 22.9 3 Este 9 Nordeste 0 -- -- 53
2020-09-05 11:00:00 18.5 0 Calma 6 Nordeste 0 -- -- 71
2020-09-05 10:00:00 12 0 Calma 5 Sudoeste 0 -- -- 95
2020-09-05 09:00:00 11.6 0 Calma 4 Sur 0 -- -- 91
2020-09-05 08:00:00 12.3 0 Calma 15 Sudoeste 0 -- -- 87
2020-09-05 07:00:00 12.9 7 Sudoeste 13 Sudoeste 0 -- -- 84
2020-09-05 06:00:00 13.1 8 Sur 16 Sudoeste 0 -- -- 84
2020-09-05 05:00:00 13.3 5 Sur 16 Sudoeste 0 -- -- 85
2020-09-05 04:00:00 13.7 9 Sur 17 Sur 0 -- -- 84
2020-09-05 03:00:00 14 8 Sudoeste 15 Sur 0 -- -- 85
2020-09-05 02:00:00 14.1 9 Sudoeste 15 Sur 0 -- -- 86
2020-09-05 01:00:00 14.8 10 Sur 16 Sudoeste 0 -- -- 83
2020-09-05 00:00:00 15.9 9 Sudoeste 19 Sudoeste 0 -- -- 79
2020-09-04 23:00:00 16.4 9 Sur 17 Sudoeste 0 -- -- 78
2020-09-04 22:00:00 16.5 3 Sudoeste 9 Sudoeste 0 -- -- 81
2020-09-04 21:00:00 17.7 4 Sudoeste 7 Sudoeste 0 -- -- 79
2020-09-04 20:00:00 20.1 0 Calma 6 Sudoeste 0 -- -- 75
2020-09-04 19:00:00 23.7 0 Calma 5 Sudoeste 0 -- -- 61
2020-09-04 18:00:00 29.2 3 Oeste 19 Norte 0 -- -- 43
2020-09-04 17:00:00 29.7 7 Norte 20 Norte 0 -- -- 35
2020-09-04 16:00:00 29.7 8 Norte 23 Norte 0 -- -- 35
2020-09-04 15:00:00 29.6 8 Norte 22 Norte 0 -- -- 34
2020-09-04 14:00:00 29.3 5 Norte 15 Norte 0 -- -- 36
2020-09-04 13:00:00 27.1 3 Este 7 Nordeste 0 -- -- 40
2020-09-04 12:00:00 22.8 0 Calma 4 Sudeste 0 -- -- 58
2020-09-04 11:00:00 18.2 2 Sudeste 4 Sur 0 -- -- 68
2020-09-04 10:00:00 11.1 0 Calma 7 Sur 0 -- -- 92
2020-09-04 09:00:00 11.2 4 Sur 18 Sudoeste 0 -- -- 84
2020-09-04 08:00:00 11.2 10 Sur 17 Sur 0 -- -- 82
2020-09-04 07:00:00 11.2 8 Sur 20 Sudoeste 0 -- -- 82
2020-09-04 06:00:00 11.2 8 Sudoeste 16 Sudoeste 0 -- -- 83
2020-09-04 05:00:00 11.7 6 Sur 15 Sudoeste 0 -- -- 81
2020-09-04 04:00:00 11.8 6 Sur 15 Sudoeste 0 -- -- 84
2020-09-04 03:00:00 12.1 8 Sur 18 Sudoeste 0 -- -- 85
2020-09-04 02:00:00 12.2 11 Sudoeste 17 Sur 0 -- -- 87
2020-09-04 01:00:00 12.6 7 Sur 15 Sur 0 -- -- 87
2020-09-04 00:00:00 13.3 10 Sudoeste 18 Sudoeste 0 -- -- 86
2020-09-03 23:00:00 13.9 9 Sudoeste 13 Sudoeste 0 -- -- 85
2020-09-03 22:00:00 14.9 8 Sudoeste 14 Sudoeste 0.2 -- -- 82
2020-09-03 21:00:00 -- 3 Sudoeste 9 Sur 0 -- -- --
2020-09-03 20:00:00 17.9 0 Calma 4 Sur 0 -- -- 76
2020-09-03 19:00:00 21.5 2 Sudoeste 12 Noroeste 0 -- -- 63
2020-09-03 18:00:00 25.6 5 Norte 17 Norte 0 -- -- 42
2020-09-03 17:00:00 26.1 7 Norte 19 Norte 0 -- -- 38
2020-09-03 16:00:00 26.2 6 Norte 20 Norte 0 -- -- 32
2020-09-03 15:00:00 25.4 8 Norte 19 Norte 0 -- -- 36
2020-09-03 14:00:00 23.9 7 Norte 15 Norte 0 -- -- 40
2020-09-03 13:00:00 22.1 4 Norte 13 Norte 0 -- -- 42
2020-09-03 12:00:00 19.1 4 Nordeste 6 Nordeste 0 -- -- 52
2020-09-03 11:00:00 14 3 Sur 4 Sudeste 0.2 -- -- 72
2020-09-03 10:00:00 7.6 2 Sur 5 Sur 0 -- -- 95
2020-09-03 09:00:00 7.2 0 Calma 12 Sudoeste 0 -- -- 94
2020-09-03 08:00:00 7.5 2 Sudoeste 14 Sudoeste 0 -- -- 91
2020-09-03 07:00:00 7.7 4 Sudoeste 12 Oeste 0 -- -- 93
2020-09-03 06:00:00 7.9 0 Calma 13 Oeste 0 -- -- 96
2020-09-03 05:00:00 7.8 2 Sur 6 Sudoeste 0 -- -- 97
2020-09-03 04:00:00 8.2 2 Sudoeste 5 Sudoeste 0 -- -- 95
2020-09-03 03:00:00 9.3 0 Calma 13 Sudoeste 0 -- -- 94
2020-09-03 02:00:00 9.7 6 Sur 14 Sudoeste 0 -- -- 93
2020-09-03 01:00:00 10.4 9 Sudoeste 15 Sudoeste 0 -- -- 92
2020-09-03 00:00:00 11.2 6 Sudoeste 13 Sudoeste 0 -- -- 90
2020-09-02 23:00:00 12.3 0 Calma 3 Sudoeste 0 -- -- 85
2020-09-02 22:00:00 14.7 0 Calma 3 Sudoeste 0 -- -- 78
2020-09-02 21:00:00 16.6 0 Calma 4 Noroeste 0 -- -- 73
2020-09-02 20:00:00 18.5 0 Calma 12 Nordeste 0 -- -- 59
2020-09-02 19:00:00 19.6 4 Norte 21 Norte 0 -- -- 54
2020-09-02 18:00:00 21.3 8 Norte 20 Norte 0 -- -- 50
2020-09-02 17:00:00 21.5 9 Norte 22 Norte 0 -- -- 48
2020-09-02 16:00:00 21.5 10 Norte 27 Norte 0 -- -- 49
2020-09-02 15:00:00 21.1 11 Norte 22 Norte 0 -- -- 51
2020-09-02 14:00:00 20.6 9 Norte 22 Norte 0 -- -- 52
2020-09-02 13:00:00 19.3 10 Norte 22 Norte 0 -- -- 55
2020-09-02 12:00:00 18.5 8 Norte 20 Norte 0 -- -- 57
2020-09-02 11:00:00 17.5 6 Norte 13 Norte 0 -- -- 63
2020-09-02 10:00:00 13.5 3 Nordeste 4 Nordeste 0 -- -- 88
2020-09-02 09:00:00 12.8 0 Calma 4 Sudoeste 0 -- -- 97
2020-09-02 08:00:00 12.3 0 Calma 5 Sudoeste 0 -- -- 98
2020-09-02 07:00:00 12.2 2 Sur 4 Sudoeste 0 -- -- 98
2020-09-02 06:00:00 12.3 2 Sudoeste 4 Sudoeste 0 -- -- 98
2020-09-02 05:00:00 12.4 2 Sudoeste 4 Sur 0 -- -- 97
2020-09-02 04:00:00 12.5 0 Calma 5 Sudoeste 0.2 -- -- 97
2020-09-02 03:00:00 12.7 2 Sudoeste 4 Sur 0 -- -- 97
2020-09-02 02:00:00 12.9 0 Calma 8 Sudoeste 0 -- -- 97
2020-09-02 01:00:00 13.1 0 Calma 4 Sudoeste 0 -- -- 96
2020-09-02 00:00:00 13.3 0 Calma 4 Sur 0 -- -- 95
2020-09-01 23:00:00 13.6 0 Calma 8 Sudoeste 0.2 -- -- 94
2020-09-01 22:00:00 14.8 4 Sudeste 12 Sur 0 -- -- 84
2020-09-01 21:00:00 16.2 0 Calma 5 Noroeste 0 -- -- 76
2020-09-01 20:00:00 17.3 0 Calma 14 Nordeste 0 -- -- 69
2020-09-01 19:00:00 18.3 6 Norte 21 Norte 0 -- -- 61
2020-09-01 18:00:00 19.2 6 Norte 18 Norte 0 -- -- 59
2020-09-01 17:00:00 20 10 Norte 23 Nordeste 0 -- -- 57
2020-09-01 16:00:00 20.7 12 Norte 24 Norte 0 -- -- 56
2020-09-01 15:00:00 21.2 11 Norte 25 Norte 0 -- -- 54
2020-09-01 14:00:00 20.1 8 Norte 19 Norte 0 -- -- 52
2020-09-01 13:00:00 19.6 4 Norte 12 Norte 0.2 -- -- 50
2020-09-01 12:00:00 17.9 3 Nordeste 6 Nordeste 0 -- -- 62
2020-09-01 11:00:00 15.8 3 Nordeste 5 Nordeste 0 -- -- 69
2020-09-01 10:00:00 11.1 0 Calma 4 Nordeste 0 -- -- 89
2020-09-01 09:00:00 10.2 3 Oeste 18 Oeste 0 -- -- 93
2020-09-01 08:00:00 8.8 4 Sudoeste 11 Sudoeste 0 -- -- 97
2020-09-01 07:00:00 8.6 2 Nordeste 16 Sudoeste 0 -- -- 98
2020-09-01 06:00:00 8.6 0 Calma 5 Sudoeste 0 -- -- 97
2020-09-01 05:00:00 8.7 0 Calma 5 Sur 0 -- -- 98
2020-09-01 04:00:00 9 2 Oeste 6 Sudoeste 0 -- -- 96
2020-09-01 03:00:00 10 0 Calma 9 Oeste 0 -- -- 94
2020-09-01 02:00:00 9.9 2 Sudoeste 10 Sudoeste 0 -- -- 96
2020-09-01 01:00:00 10.4 2 Sudoeste 7 Sudoeste 0 -- -- 94
2020-09-01 00:00:00 10.8 4 Sur 12 Sudoeste 0 -- -- 93
2020-08-31 23:00:00 11 3 Sudoeste 10 Sudoeste 0 -- -- 92
2020-08-31 22:00:00 11.9 0 Calma 6 Sudoeste 0 -- -- 89
2020-08-31 21:00:00 13.8 0 Calma 5 Oeste 0 -- -- 83
2020-08-31 20:00:00 15.4 2 Sudoeste 6 Este 0 -- -- 80
2020-08-31 19:00:00 17.7 0 Calma 13 Norte 0 -- -- 68
2020-08-31 18:00:00 20.3 6 Norte 19 Norte 0 -- -- 52
2020-08-31 17:00:00 20.6 9 Norte 26 Norte 0 -- -- 49
2020-08-31 16:00:00 20.6 11 Norte 28 Norte 0.2 -- -- 50
2020-08-31 15:00:00 20.5 8 Norte 18 Norte 0 -- -- 44
2020-08-31 14:00:00 19.7 6 Norte 15 Norte 0 -- -- 40
2020-08-31 13:00:00 18.1 5 Norte 12 Norte 0 -- -- 52
2020-08-31 12:00:00 15.7 3 Sudeste 5 Sur 0 -- -- 71
2020-08-31 11:00:00 12.8 2 Este 4 Sudeste 0 -- -- 87
2020-08-31 10:00:00 8.6 2 Sudeste 5 Sudoeste 0 -- -- 100
2020-08-31 09:00:00 8.2 5 Sur 8 Sudoeste 0 -- -- 99
2020-08-31 08:00:00 8.1 0 Calma 0 Calma 0 -- -- 99
2020-08-31 07:00:00 8.8 0 Calma 4 Oeste 0 -- -- 99
2020-08-31 06:00:00 9.1 0 Calma 3 Sur 0 -- -- 99
2020-08-31 05:00:00 9.4 0 Calma 5 Sudoeste 0 -- -- 97
2020-08-31 04:00:00 10 0 Calma 3 Oeste 0 -- -- 97
2020-08-31 03:00:00 10.6 0 Calma 5 Sudeste 0 -- -- 96
2020-08-31 02:00:00 10.9 0 Calma 3 Sur 0 -- -- 98
2020-08-31 01:00:00 10.8 0 Calma 4 Sudeste 0 -- -- 98
2020-08-31 00:00:00 10.9 0 Calma 2 Sur 0 -- -- 98
2020-08-30 23:00:00 11.1 0 Calma 5 Sudoeste 0.6 -- -- 97
2020-08-30 22:00:00 11.2 0 Calma 4 Sudeste 1 -- -- 97
2020-08-30 21:00:00 11.4 0 Calma 5 Sur 0 -- -- 96
2020-08-30 20:00:00 11.8 5 Sur 12 Sudoeste 1.6 -- -- 94
2020-08-30 19:00:00 13.2 3 Sur 18 Sudoeste 0 -- -- 85
2020-08-30 18:00:00 14 4 Oeste 16 Sudoeste 0 -- -- 88
2020-08-30 17:00:00 14.1 5 Sudeste 10 Sur 0.2 -- -- 85
2020-08-30 16:00:00 15.5 5 Sudoeste 19 Nordeste 0.2 -- -- 77
2020-08-30 15:00:00 16.5 6 Norte 17 Norte 0 -- -- 65
2020-08-30 14:00:00 13.5 2 Norte 24 Norte 0 -- -- 80
2020-08-30 13:00:00 14.4 8 Norte 22 Norte 0 -- -- 74
2020-08-30 12:00:00 13.6 4 Norte 10 Norte 0 -- -- 78
2020-08-30 11:00:00 13.3 2 Noroeste 6 Norte 0 -- -- 76
2020-08-30 10:00:00 11.1 3 Nordeste 7 Norte 0 -- -- 92
2020-08-30 09:00:00 9.9 3 Sur 6 Sudoeste 0 -- -- 98
2020-08-30 08:00:00 8.9 8 Sudoeste 15 Sudoeste 0 -- -- 98
2020-08-30 07:00:00 9.6 2 Nordeste 4 Nordeste 0 -- -- 98
2020-08-30 06:00:00 9.8 0 Calma 6 Sudoeste 0 -- -- 98
2020-08-30 05:00:00 10 2 Este 5 Sudoeste 0 -- -- 98
2020-08-30 04:00:00 10.2 0 Calma 5 Sur 0 -- -- 98
2020-08-30 03:00:00 10.4 3 Sudeste 8 Nordeste 0 -- -- 98
2020-08-30 02:00:00 10.6 3 Este 5 Este 0 -- -- 98
2020-08-30 01:00:00 10.8 0 Calma 5 Sudoeste 0 -- -- 98
2020-08-30 00:00:00 10.7 0 Calma 4 Sudeste 0 -- -- 98
2020-08-29 23:00:00 10.7 0 Calma 5 Sur 0 -- -- 97
2020-08-29 22:00:00 10.9 2 Sur 5 Este 0 -- -- 97
2020-08-29 21:00:00 11.2 3 Nordeste 5 Nordeste 0 -- -- 96
2020-08-29 20:00:00 11.6 2 Sudoeste 7 Nordeste 0 -- -- 95
2020-08-29 19:00:00 11.7 4 Nordeste 17 Nordeste 0 -- -- 93
2020-08-29 18:00:00 14.8 8 Sudoeste 18 Sudoeste 0 -- -- 74
2020-08-29 17:00:00 15.1 4 Sur 10 Sudoeste 0 -- -- 77
2020-08-29 16:00:00 15.5 3 Nordeste 6 Nordeste 0 -- -- 65
2020-08-29 15:00:00 15.6 0 Calma 6 Norte 0 -- -- 65
2020-08-29 14:00:00 15 4 Norte 11 Norte 0 -- -- 68
2020-08-29 13:00:00 14.1 4 Norte 12 Norte 0 -- -- 77
2020-08-29 12:00:00 13.9 3 Nordeste 7 Este 0.2 -- -- 77
2020-08-29 11:00:00 13.2 2 Norte 6 Nordeste 0 -- -- 82
2020-08-29 10:00:00 12 2 Norte 6 Nordeste 0 -- -- 91
2020-08-29 09:00:00 11.3 2 Nordeste 4 Nordeste 0 -- -- 96
2020-08-29 08:00:00 11 3 Nordeste 6 Nordeste 0 -- -- 97
2020-08-29 07:00:00 11 0 Calma 4 Sur 0 -- -- 97
2020-08-29 06:00:00 10.9 2 Nordeste 5 Nordeste 0 -- -- 97
2020-08-29 05:00:00 10.8 3 Este 5 Sudoeste 0 -- -- 96
2020-08-29 04:00:00 10.9 3 Sur 4 Sudeste 0 -- -- 96
2020-08-29 03:00:00 11.2 0 Calma 4 Sur 0 -- -- 96
2020-08-29 02:00:00 11.4 0 Calma 18 Noroeste 0 -- -- 94
2020-08-29 01:00:00 11.7 3 Norte 20 Norte 0 -- -- 89
2020-08-29 00:00:00 12.3 3 Nordeste 11 Norte 0 -- -- 96
2020-08-28 23:00:00 12.7 3 Nordeste 10 Nordeste 0 -- -- 93
2020-08-28 22:00:00 13.1 5 Nordeste 14 Nordeste 0 -- -- 92
2020-08-28 21:00:00 13.4 2 Nordeste 7 Nordeste 0 -- -- 96
2020-08-28 20:00:00 13.7 2 Norte 9 Sudeste 0.8 -- -- 94
2020-08-28 19:00:00 14.2 3 Nordeste 10 Norte 0.6 -- -- 91
2020-08-28 18:00:00 14.5 5 Nordeste 22 Norte 1.6 -- -- 90
2020-08-28 17:00:00 15.2 6 Norte 21 Norte 0 -- -- 84
2020-08-28 16:00:00 15 6 Norte 21 Norte 0 -- -- 87
2020-08-28 15:00:00 14.9 3 Nordeste 17 Norte 0.6 -- -- 91
2020-08-28 14:00:00 15.2 3 Nordeste 18 Nordeste 0.6 -- -- 91
2020-08-28 13:00:00 16.1 7 Norte 23 Nordeste 0 -- -- 90
2020-08-28 12:00:00 16.9 5 Norte 14 Norte 1.4 -- -- 94
2020-08-28 11:00:00 16.7 4 Norte 17 Norte 12.6 -- -- 95
2020-08-28 10:00:00 17.9 3 Norte 11 Norte 0.8 -- -- 90
2020-08-28 09:00:00 18.4 4 Nordeste 13 Nordeste 0 -- -- 88
2020-08-28 08:00:00 18.1 0 Calma 11 Nordeste 0 -- -- 90
2020-08-28 07:00:00 17.9 3 Nordeste 8 Nordeste 0 -- -- 91
2020-08-28 06:00:00 17.5 2 Este 5 Nordeste 0 -- -- 92
2020-08-28 05:00:00 16.8 2 Este 5 Oeste 0 -- -- 91
2020-08-28 04:00:00 17 0 Calma 6 Oeste 0 -- -- 89
2020-08-28 03:00:00 17.7 5 Sur 18 Oeste 0 -- -- 85
2020-08-28 02:00:00 18.5 9 Sudoeste 17 Sudoeste 0 -- -- 83
2020-08-28 01:00:00 19.4 5 Sudoeste 10 Sudoeste 0 -- -- 82
2020-08-28 00:00:00 19.5 0 Calma 3 Sudoeste 0 -- -- 82
2020-08-27 23:00:00 20.1 0 Calma 4 Oeste 0 -- -- 78
2020-08-27 22:00:00 22.9 0 Calma 12 Norte 0 -- -- 67
2020-08-27 21:00:00 24 3 Norte 13 Este 0 -- -- 63
2020-08-27 20:00:00 24.9 3 Norte 19 Norte 0 -- -- 59
2020-08-27 19:00:00 26.4 6 Norte 26 Norte 0 -- -- 51
2020-08-27 18:00:00 28.6 13 Norte 28 Norte 0 -- -- 45
2020-08-27 17:00:00 29.7 11 Norte 33 Norte 0 -- -- 44
2020-08-27 16:00:00 30.2 14 Norte 30 Norte 0 -- -- 41
2020-08-27 15:00:00 30 11 Norte 31 Norte 0 -- -- 41
2020-08-27 14:00:00 29.3 12 Norte 30 Norte 0 -- -- 40
2020-08-27 13:00:00 27.9 10 Norte 21 Norte 0 -- -- 48
2020-08-27 12:00:00 25.5 3 Nordeste 9 Nordeste 0 -- -- 54
2020-08-27 11:00:00 21.3 3 Este 5 Este 0 -- -- 72
2020-08-27 10:00:00 16 0 Calma 4 Sur 0 -- -- 95
2020-08-27 09:00:00 14.6 2 Sur 7 Sudoeste 0 -- -- 95
2020-08-27 08:00:00 14.2 4 Sudoeste 9 Sudoeste 0 -- -- 95
2020-08-27 07:00:00 14.5 5 Sudoeste 11 Oeste 0 -- -- 95
2020-08-27 06:00:00 15.5 3 Sur 13 Sudoeste 0 -- -- 93
2020-08-27 05:00:00 16.2 11 Sudoeste 22 Sudoeste 0 -- -- 90
2020-08-27 04:00:00 17.2 14 Sudoeste 19 Sudoeste 0 -- -- 88
2020-08-27 03:00:00 18.3 0 Calma 12 Sudoeste 0 -- -- 87
2020-08-27 02:00:00 18.2 9 Sudoeste 18 Sudoeste 0 -- -- 87
2020-08-27 01:00:00 17.5 4 Sudoeste 6 Sudoeste 0 -- -- 91
2020-08-27 00:00:00 17.2 0 Calma 4 Oeste 0 -- -- 93
2020-08-26 23:00:00 17.6 0 Calma 4 Sudoeste 0 -- -- 89
2020-08-26 22:00:00 19 0 Calma 3 Sudoeste 0 -- -- 84
2020-08-26 21:00:00 21.4 0 Calma 11 Nordeste 0 -- -- 75
2020-08-26 20:00:00 23.2 4 Norte 14 Nordeste 0 -- -- 67
2020-08-26 19:00:00 24.7 6 Norte 23 Nordeste 0 -- -- 62
2020-08-26 18:00:00 27 12 Norte 27 Nordeste 0 -- -- 56
2020-08-26 17:00:00 27.3 12 Norte 26 Nordeste 0 -- -- 54
2020-08-26 16:00:00 27.1 12 Norte 30 Norte 0 -- -- 54
2020-08-26 15:00:00 26.8 10 Norte 26 Norte 0 -- -- 55
2020-08-26 14:00:00 26.3 12 Norte 26 Nordeste 0 -- -- 55
2020-08-26 13:00:00 25.3 10 Norte 22 Norte 0 -- -- 55
2020-08-26 12:00:00 23.3 6 Norte 15 Nordeste 0 -- -- 60
2020-08-26 11:00:00 20.9 4 Nordeste 8 Nordeste 0 -- -- 67
2020-08-26 10:00:00 14.7 0 Calma 4 Este 0 -- -- 91
2020-08-26 09:00:00 12.9 0 Calma 6 Sudeste 0 -- -- 95
2020-08-26 08:00:00 12.2 2 Sudoeste 6 Sudoeste 0 -- -- 95
2020-08-26 07:00:00 12.6 4 Sur 9 Sudoeste 0 -- -- 95
2020-08-26 06:00:00 12.5 3 Sudoeste 7 Sudoeste 0 -- -- 96
2020-08-26 05:00:00 12.6 4 Sudoeste 8 Sudoeste 0 -- -- 95
2020-08-26 04:00:00 13.1 2 Sudoeste 4 Oeste 0 -- -- 94
2020-08-26 03:00:00 14 0 Calma 5 Sudoeste 0 -- -- 91
2020-08-26 02:00:00 14.7 2 Sur 7 Sudoeste 0 -- -- 88
2020-08-26 01:00:00 15.6 4 Sudoeste 7 Sur 0 -- -- 85
2020-08-26 00:00:00 16.4 3 Sudoeste 5 Sudoeste 0 -- -- 82
2020-08-25 23:00:00 17.7 0 Calma 4 Oeste 0 -- -- 78
2020-08-25 22:00:00 19.7 0 Calma 5 Sur 0 -- -- 70
2020-08-25 21:00:00 22.7 3 Sudeste 13 Norte 0 -- -- 58
2020-08-25 20:00:00 25.2 3 Norte 18 Norte 0 -- -- 50
2020-08-25 19:00:00 27.7 8 Norte 24 Nordeste 0 -- -- 42
2020-08-25 18:00:00 30.6 9 Norte 28 Norte 0 -- -- 35
2020-08-25 17:00:00 31.4 14 Norte 28 Norte 0 -- -- 32
2020-08-25 16:00:00 31.9 11 Norte 23 Norte 0 -- -- 29
2020-08-25 15:00:00 31.6 9 Norte 26 Norte 0 -- -- 27
2020-08-25 14:00:00 31.1 9 Norte 20 Nordeste 0 -- -- 25
2020-08-25 13:00:00 30 7 Norte 19 Norte 0 -- -- 25
2020-08-25 12:00:00 25.3 2 Sudeste 4 Sudeste 0 -- -- 41
2020-08-25 11:00:00 20 0 Calma 3 Sudeste 0 -- -- 52
2020-08-25 10:00:00 12.5 2 Sudeste 9 Sudoeste 0 -- -- 83
2020-08-25 09:00:00 9.4 3 Sudoeste 6 Sur 0 -- -- 93
2020-08-25 08:00:00 9.5 3 Sur 8 Sudoeste 0 -- -- 93
2020-08-25 07:00:00 9.5 0 Calma 7 Sudoeste 0 -- -- 94
2020-08-25 06:00:00 10.3 2 Sudoeste 10 Sudoeste 0 -- -- 93
2020-08-25 05:00:00 10.7 2 Sur 5 Sudoeste 0 -- -- 95
2020-08-25 04:00:00 11.7 3 Sudoeste 16 Sudoeste 0 -- -- 91
2020-08-25 03:00:00 12 10 Sudoeste 15 Sudoeste 0 -- -- 95
2020-08-25 02:00:00 12.1 0 Calma 4 Sur 0 -- -- 94
2020-08-25 01:00:00 13 2 Sudoeste 5 Sur 0 -- -- 92
2020-08-25 00:00:00 14.1 3 Sudoeste 12 Sudoeste 0 -- -- 89
2020-08-24 23:00:00 14.7 0 Calma 4 Sudoeste 0 -- -- 88
2020-08-24 22:00:00 16.1 0 Calma 4 Sudoeste 0 -- -- 82
2020-08-24 21:00:00 17.9 0 Calma 4 Este 0 -- -- 75
2020-08-24 20:00:00 20.3 0 Calma 6 Nordeste 0 -- -- 69
2020-08-24 19:00:00 22.7 4 Norte 21 Norte 0 -- -- 56
2020-08-24 18:00:00 24.6 7 Norte 22 Nordeste 0 -- -- 50
2020-08-24 17:00:00 24.9 8 Norte 25 Norte 0 -- -- 49
2020-08-24 16:00:00 24.7 8 Norte 21 Norte 0 -- -- 47
2020-08-24 15:00:00 23.7 8 Norte 21 Nordeste 0 -- -- 50
2020-08-24 14:00:00 23.3 9 Norte 24 Norte 0 -- -- 50
2020-08-24 13:00:00 22.5 7 Norte 18 Nordeste 0 -- -- 52
2020-08-24 12:00:00 19.8 7 Nordeste 13 Norte 0 -- -- 62
2020-08-24 11:00:00 18.1 4 Norte 10 Norte 0 -- -- 73
2020-08-24 10:00:00 16.7 3 Norte 10 Norte 0 -- -- 81
2020-08-24 09:00:00 15.6 4 Norte 10 Norte 0 -- -- 87
2020-08-24 08:00:00 15.1 0 Calma 3 Sudeste 0 -- -- 90
2020-08-24 07:00:00 15.4 3 Nordeste 6 Nordeste 0 -- -- 87
2020-08-24 06:00:00 15.4 0 Calma 4 Nordeste 0 -- -- 86
2020-08-24 05:00:00 15.8 0 Calma -- -- 0 -- -- 86
2020-08-24 04:00:00 16 0 Calma -- -- 0 -- -- 85
2020-08-24 03:00:00 16.2 0 Calma -- -- 0 -- -- 83
2020-08-24 02:00:00 16.5 0 Calma 0 Calma 0 -- -- 80
2020-08-24 01:00:00 17 0 Calma 6 Sur 0 -- -- 78
2020-08-24 00:00:00 17.5 0 Calma 8 Nordeste 0 -- -- 73
2020-08-23 23:00:00 18 2 Nordeste 10 Oeste 0 -- -- 71
2020-08-23 22:00:00 18.6 3 Nordeste 9 Oeste 0 -- -- 67
2020-08-23 21:00:00 19 0 Calma 8 Nordeste 0 -- -- 66
2020-08-23 20:00:00 19.7 5 Norte 17 Norte 0 -- -- 62
2020-08-23 19:00:00 20.4 6 Norte 17 Norte 0 -- -- 60
2020-08-23 18:00:00 21.3 8 Nordeste 21 Norte 0 -- -- 58
2020-08-23 17:00:00 22.3 10 Norte 26 Norte 0 -- -- 53
2020-08-23 16:00:00 23.3 12 Norte 26 Nordeste 0 -- -- 51
2020-08-23 15:00:00 22.7 11 Norte 27 Norte 0 -- -- 52
2020-08-23 14:00:00 22.8 13 Norte 28 Norte 0 -- -- 52
2020-08-23 13:00:00 21.9 13 Norte 25 Nordeste 0 -- -- 53
2020-08-23 12:00:00 20.8 9 Norte 20 Norte 0 -- -- 57
2020-08-23 11:00:00 19.3 6 Nordeste 16 Nordeste 0 -- -- 65
2020-08-23 10:00:00 15.9 3 Norte 6 Nordeste 0 -- -- 84
2020-08-23 09:00:00 15.8 0 Calma 6 Nordeste 0 -- -- 86
2020-08-23 08:00:00 15.6 2 Nordeste 4 Norte 0 -- -- 89
2020-08-23 07:00:00 15.5 0 Calma 4 Nordeste 0 -- -- 90
2020-08-23 06:00:00 15.5 0 Calma 3 Sudoeste 0 -- -- 91
2020-08-23 05:00:00 15.5 0 Calma 3 Sur 0 -- -- 93
2020-08-23 04:00:00 15.2 0 Calma 2 Oeste 0 -- -- 93
2020-08-23 03:00:00 15.2 0 Calma 3 Oeste 0 -- -- 93
2020-08-23 02:00:00 15.4 0 Calma 2 Noroeste 0 -- -- 91
2020-08-23 01:00:00 16.6 0 Calma 3 Este 0 -- -- 89
2020-08-23 00:00:00 17.1 0 Calma 3 Nordeste 0 -- -- 86
2020-08-22 23:00:00 17.5 0 Calma 5 Nordeste 0 -- -- 84
2020-08-22 22:00:00 17.9 0 Calma 5 Norte 0 -- -- 81
2020-08-22 21:00:00 18.5 0 Calma 11 Nordeste 0 -- -- 77
2020-08-22 20:00:00 19.1 3 Norte 10 Norte 0 -- -- 72
2020-08-22 19:00:00 19.8 3 Norte 10 Norte 0 -- -- 67
2020-08-22 18:00:00 19.9 6 Norte 18 Norte 0 -- -- 66
2020-08-22 17:00:00 20.3 9 Norte 23 Norte 0 -- -- 66
2020-08-22 16:00:00 20.8 6 Norte 21 Norte 0 -- -- 68
2020-08-22 15:00:00 20.5 7 Norte 26 Norte 0 -- -- 69
2020-08-22 14:00:00 21.7 6 Norte 18 Norte 0 -- -- 63
2020-08-22 13:00:00 19.9 6 Norte 18 Norte 0 -- -- 70
2020-08-22 12:00:00 19 6 Norte 15 Norte 0 -- -- 76
2020-08-22 11:00:00 18.2 4 Norte 11 Norte 0 -- -- 82
2020-08-22 10:00:00 16.7 4 Nordeste 10 Norte 0 -- -- 87
2020-08-22 09:00:00 16.3 5 Norte 10 Norte 0 -- -- 90
2020-08-22 08:00:00 16 0 Calma 3 Nordeste 0 -- -- 91
2020-08-22 07:00:00 16 0 Calma 8 Norte 0 -- -- 91
2020-08-22 06:00:00 16.3 3 Este 9 Nordeste 0 -- -- 90
2020-08-22 05:00:00 16.5 0 Calma 10 Este 0 -- -- 92
2020-08-22 04:00:00 16.9 2 Nordeste 12 Nordeste 0 -- -- 92
2020-08-22 03:00:00 17.8 6 Nordeste 13 Nordeste 0 -- -- 92
2020-08-22 02:00:00 18.9 4 Nordeste 14 Norte 0 -- -- 87
2020-08-22 01:00:00 19.7 6 Norte 20 Nordeste 0 -- -- 82
2020-08-22 00:00:00 20.8 6 Norte 20 Norte 0 -- -- 78
2020-08-21 23:00:00 22.3 5 Norte 17 Norte 0 -- -- 76
2020-08-21 22:00:00 23.1 0 Calma 6 Norte 0 -- -- 74
2020-08-21 21:00:00 25.1 2 Nordeste 13 Noroeste 0 -- -- 66
2020-08-21 20:00:00 26.1 2 Norte 21 Norte 0 -- -- 64
2020-08-21 19:00:00 27.4 7 Norte 23 Norte 0 -- -- 59
2020-08-21 18:00:00 29.6 11 Norte 27 Norte 0 -- -- 53
2020-08-21 17:00:00 30.3 14 Norte 28 Nordeste 0 -- -- 51
2020-08-21 16:00:00 30.6 12 Norte 32 Norte 0 -- -- 48
2020-08-21 15:00:00 30.5 13 Norte 30 Norte 0 -- -- 45
2020-08-21 14:00:00 29.5 8 Norte 19 Norte 0 -- -- 47
2020-08-21 13:00:00 28.5 5 Norte 15 Norte 0 -- -- 47
2020-08-21 12:00:00 26.7 3 Sudeste 11 Norte 0 -- -- 50
2020-08-21 11:00:00 24.1 2 Sudeste 5 Este 0 -- -- 61
2020-08-21 10:00:00 20.5 2 Este 9 Oeste 0 -- -- 66
2020-08-21 09:00:00 16.5 0 Calma 5 Oeste 0 -- -- 75
2020-08-21 08:00:00 17.4 2 Sudeste 6 Sudoeste 0 -- -- 68
2020-08-21 07:00:00 21 2 Nordeste 27 Sudoeste 0 -- -- 51
2020-08-21 06:00:00 23 17 Sudoeste 28 Sudoeste 0 -- -- 44
2020-08-21 05:00:00 25.1 11 Sur 22 Sudoeste 0 -- -- 36
2020-08-21 04:00:00 23 4 Sur 15 Sur 0 -- -- 45
2020-08-21 03:00:00 26.2 7 Sudoeste 35 Sudoeste 0 -- -- 36
2020-08-21 02:00:00 27.3 19 Oeste 41 Sudoeste 0 -- -- 32
2020-08-21 01:00:00 27.7 21 Oeste 48 Oeste 0 -- -- 30
2020-08-21 00:00:00 27.7 22 Oeste 43 Sudoeste 0 -- -- 31